createdAt,value
2017-06-11T00:02:08.132Z,70.26
2017-06-11T00:04:40.534Z,70.49
2017-06-11T00:07:12.919Z,70.47
2017-06-11T00:09:45.309Z,69.95
2017-06-11T00:12:17.671Z,70.02
2017-06-11T00:14:50.104Z,71.11
2017-06-11T00:17:23.347Z,70.44
2017-06-11T00:19:55.852Z,70.55
2017-06-11T00:22:29.176Z,70.57
2017-06-11T00:25:01.689Z,70.65
2017-06-11T00:27:34.792Z,70.57
2017-06-11T00:30:07.431Z,70.77
2017-06-11T00:32:39.835Z,70.83
2017-06-11T00:35:12.304Z,70.75
2017-06-11T00:37:44.685Z,71.82
2017-06-11T00:40:17.148Z,71.77
2017-06-11T00:42:49.455Z,71.05
2017-06-11T00:45:21.900Z,71.94
2017-06-11T00:47:54.383Z,72.65
2017-06-11T00:50:27.007Z,71.92
2017-06-11T00:52:59.054Z,72.20
2017-06-11T00:55:31.459Z,71.54
2017-06-11T00:58:03.744Z,70.01
2017-06-11T01:00:37.103Z,69.79
2017-06-11T01:03:09.518Z,69.76
2017-06-11T01:05:41.932Z,69.95
2017-06-11T01:08:14.324Z,69.48
2017-06-11T01:10:47.667Z,69.72
2017-06-11T01:13:20.017Z,69.87
2017-06-11T01:15:53.476Z,69.68
2017-06-11T01:18:25.888Z,70.32
2017-06-11T01:20:58.280Z,70.69
2017-06-11T01:23:30.668Z,70.76
2017-06-11T01:26:03.152Z,70.58
2017-06-11T01:28:35.439Z,70.72
2017-06-11T01:31:07.909Z,71.28
2017-06-11T01:33:40.252Z,70.77
2017-06-11T01:36:12.634Z,70.39
2017-06-11T01:38:45.111Z,70.65
2017-06-11T01:41:17.584Z,70.00
2017-06-11T01:43:50.026Z,69.93
2017-06-11T01:46:22.484Z,69.87
2017-06-11T01:48:55.020Z,69.98
2017-06-11T01:51:27.458Z,69.59
2017-06-11T01:53:59.743Z,70.85
2017-06-11T01:56:32.207Z,70.28
2017-06-11T01:59:07.499Z,70.02
2017-06-11T02:01:39.985Z,70.44
2017-06-11T02:04:12.315Z,70.54
2017-06-11T02:06:44.804Z,70.92
2017-06-11T02:09:17.277Z,69.86
2017-06-11T02:11:49.920Z,69.74
2017-06-11T02:14:22.859Z,70.14
2017-06-11T02:16:55.287Z,69.79
2017-06-11T02:19:27.680Z,70.21
2017-06-11T02:22:00.032Z,69.72
2017-06-11T02:24:32.410Z,70.05
2017-06-11T02:27:04.824Z,70.42
2017-06-11T02:29:37.176Z,70.50
2017-06-11T02:32:09.798Z,70.44
2017-06-11T02:34:41.806Z,71.32
2017-06-11T02:37:14.080Z,72.28
2017-06-11T02:39:46.464Z,71.97
2017-06-11T02:42:19.973Z,71.75
2017-06-11T02:44:52.347Z,72.29
2017-06-11T02:47:24.695Z,72.69
2017-06-11T02:49:57.115Z,72.35
2017-06-11T02:52:29.463Z,72.17
2017-06-11T02:55:01.911Z,72.35
2017-06-11T02:57:34.222Z,72.04
2017-06-11T03:00:06.583Z,71.69
2017-06-11T03:02:38.983Z,71.60
2017-06-11T03:05:11.403Z,71.61
2017-06-11T03:07:43.879Z,71.77
2017-06-11T03:10:16.253Z,72.32
2017-06-11T03:12:48.572Z,72.04
2017-06-11T03:15:20.921Z,71.59
2017-06-11T03:17:53.388Z,72.87
2017-06-11T03:20:25.711Z,72.69
2017-06-11T03:22:58.188Z,71.95
2017-06-11T03:25:30.501Z,71.46
2017-06-11T03:28:02.986Z,72.44
2017-06-11T03:30:35.324Z,71.96
2017-06-11T03:33:07.726Z,71.54
2017-06-11T03:35:40.179Z,71.42
2017-06-11T03:38:12.479Z,71.22
2017-06-11T03:40:44.936Z,71.48
2017-06-11T03:43:17.357Z,70.69
2017-06-11T03:45:49.687Z,70.27
2017-06-11T03:48:22.183Z,70.68
2017-06-11T03:50:54.432Z,70.42
2017-06-11T03:53:27.113Z,70.24
2017-06-11T03:55:59.216Z,69.53
2017-06-11T03:58:38.556Z,69.62
2017-06-11T04:01:10.911Z,69.49
2017-06-11T04:03:43.448Z,68.84
2017-06-11T04:06:15.828Z,69.15
2017-06-11T04:08:48.295Z,68.44
2017-06-11T04:11:20.686Z,68.01
2017-06-11T04:13:53.863Z,66.50
2017-06-11T04:16:26.443Z,65.84
2017-06-11T04:18:58.848Z,65.39
2017-06-11T04:21:31.231Z,64.42
2017-06-11T04:24:04.631Z,63.19
2017-06-11T04:26:37.002Z,61.74
2017-06-11T04:29:09.392Z,60.70
2017-06-11T04:31:41.817Z,60.00
2017-06-11T04:34:14.305Z,58.67
2017-06-11T04:36:46.627Z,57.52
2017-06-11T04:39:19.075Z,56.11
2017-06-11T04:41:51.447Z,55.97
2017-06-11T04:44:24.915Z,54.60
2017-06-11T04:46:57.604Z,55.57
2017-06-11T04:49:29.867Z,56.04
2017-06-11T04:52:02.212Z,54.85
2017-06-11T04:54:34.597Z,53.30
2017-06-11T04:57:06.916Z,53.05
2017-06-11T04:59:39.370Z,53.29
2017-06-11T05:02:11.677Z,51.97
2017-06-11T05:04:44.428Z,52.14
2017-06-11T05:07:16.585Z,50.98
2017-06-11T05:09:49.023Z,51.40
2017-06-11T05:12:21.563Z,50.78
2017-06-11T05:14:54.083Z,49.29
2017-06-11T05:17:26.446Z,48.88
2017-06-11T05:19:58.957Z,47.28
2017-06-11T05:22:31.359Z,46.95
2017-06-11T05:25:03.663Z,46.66
2017-06-11T05:27:42.947Z,46.77
2017-06-11T05:30:15.669Z,47.86
2017-06-11T05:32:48.053Z,47.43
2017-06-11T05:35:20.360Z,47.01
2017-06-11T05:37:52.703Z,45.59
2017-06-11T05:40:25.088Z,45.65
2017-06-11T05:42:57.587Z,44.05
2017-06-11T05:45:30.044Z,44.27
2017-06-11T05:48:02.451Z,43.93
2017-06-11T05:50:34.860Z,42.76
2017-06-11T05:53:07.271Z,41.95
2017-06-11T05:55:39.628Z,42.13
2017-06-11T05:58:11.953Z,43.52
2017-06-11T06:00:44.351Z,43.42
2017-06-11T06:03:16.723Z,42.19
2017-06-11T06:05:49.238Z,41.15
2017-06-11T06:08:21.635Z,41.16
2017-06-11T06:10:54.132Z,40.84
2017-06-11T06:13:26.501Z,40.19
2017-06-11T06:15:58.893Z,39.39
2017-06-11T06:18:31.256Z,38.29
2017-06-11T06:21:03.748Z,35.44
2017-06-11T06:23:36.220Z,36.98
2017-06-11T06:26:08.875Z,36.64
2017-06-11T06:28:40.993Z,36.50
2017-06-11T06:31:13.464Z,35.28
2017-06-11T06:33:45.907Z,35.88
2017-06-11T06:36:18.400Z,35.60
2017-06-11T06:38:50.780Z,35.89
2017-06-11T06:41:23.147Z,35.51
2017-06-11T06:43:55.615Z,36.44
2017-06-11T06:46:28.079Z,36.35
2017-06-11T06:49:00.494Z,36.33
2017-06-11T06:51:32.915Z,38.26
2017-06-11T06:54:05.355Z,39.75
2017-06-11T06:56:37.799Z,40.97
2017-06-11T06:59:10.187Z,42.02
2017-06-11T07:01:42.675Z,43.01
2017-06-11T07:04:15.015Z,42.13
2017-06-11T07:06:47.468Z,42.13
2017-06-11T07:09:19.660Z,42.73
2017-06-11T07:11:51.971Z,43.25
2017-06-11T07:14:24.403Z,42.31
2017-06-11T07:16:56.880Z,41.19
2017-06-11T07:19:29.456Z,39.60
2017-06-11T07:22:01.896Z,38.68
2017-06-11T07:24:34.270Z,38.84
2017-06-11T07:27:06.578Z,37.26
2017-06-11T07:29:38.935Z,34.41
2017-06-11T07:32:11.399Z,35.13
2017-06-11T07:34:43.770Z,36.44
2017-06-11T07:37:16.191Z,36.53
2017-06-11T07:39:48.590Z,36.42
2017-06-11T07:42:21.041Z,36.19
2017-06-11T07:44:53.370Z,37.19
2017-06-11T07:47:25.875Z,36.81
2017-06-11T07:49:58.631Z,36.92
2017-06-11T07:52:31.819Z,37.81
2017-06-11T07:55:04.203Z,38.31
2017-06-11T07:57:36.621Z,38.32
2017-06-11T08:00:09.034Z,37.83
2017-06-11T08:02:41.542Z,39.07
2017-06-11T08:05:13.882Z,41.62
2017-06-11T08:07:46.319Z,42.59
2017-06-11T08:10:18.656Z,41.84
2017-06-11T08:12:51.139Z,42.72
2017-06-11T08:15:23.499Z,43.55
2017-06-11T08:17:55.908Z,43.51
2017-06-11T08:20:29.087Z,43.85
2017-06-11T08:23:01.667Z,43.54
2017-06-11T08:25:34.115Z,43.46
2017-06-11T08:28:06.608Z,43.63
2017-06-11T08:30:38.910Z,43.56
2017-06-11T08:33:11.768Z,44.18
2017-06-11T08:35:43.721Z,41.61
2017-06-11T08:38:16.252Z,41.60
2017-06-11T08:40:48.851Z,42.25
2017-06-11T08:43:21.027Z,40.46
2017-06-11T08:45:53.595Z,40.38
2017-06-11T08:48:25.948Z,39.33
2017-06-11T08:50:58.344Z,37.18
2017-06-11T08:53:30.775Z,35.80
2017-06-11T08:56:03.218Z,36.51
2017-06-11T08:58:35.584Z,37.06
2017-06-11T09:01:07.967Z,38.01
2017-06-11T09:03:40.467Z,38.19
2017-06-11T09:06:12.788Z,37.79
2017-06-11T09:08:46.323Z,35.88
2017-06-11T09:11:18.814Z,35.34
2017-06-11T09:13:51.159Z,35.07
2017-06-11T09:16:23.819Z,34.70
2017-06-11T09:18:56.224Z,32.87
2017-06-11T09:21:28.391Z,33.53
2017-06-11T09:24:00.876Z,31.84
2017-06-11T09:26:33.327Z,32.85
2017-06-11T09:29:05.728Z,33.04
2017-06-11T09:31:38.194Z,33.59
2017-06-11T09:34:10.705Z,34.72
2017-06-11T09:36:42.942Z,32.98
2017-06-11T09:39:15.428Z,31.89
2017-06-11T09:41:47.836Z,31.42
2017-06-11T09:44:20.671Z,31.09
2017-06-11T09:46:52.618Z,31.11
2017-06-11T09:49:25.059Z,31.67
2017-06-11T09:51:57.467Z,31.60
2017-06-11T09:54:30.995Z,32.87
2017-06-11T09:57:03.356Z,33.07
2017-06-11T09:59:35.732Z,32.56
2017-06-11T10:02:08.194Z,31.98
2017-06-11T10:04:40.704Z,33.09
2017-06-11T10:07:13.075Z,32.97
2017-06-11T10:09:45.548Z,33.87
2017-06-11T10:12:17.854Z,33.55
2017-06-11T10:14:57.272Z,33.00
2017-06-11T10:17:30.266Z,33.39
2017-06-11T10:20:02.114Z,32.70
2017-06-11T10:22:34.455Z,31.24
2017-06-11T10:25:06.856Z,30.17
2017-06-11T10:27:39.232Z,30.29
2017-06-11T10:30:11.588Z,31.42
2017-06-11T10:32:44.075Z,30.36
2017-06-11T10:35:17.558Z,30.50
2017-06-11T10:37:49.951Z,30.61
2017-06-11T10:40:22.322Z,30.15
2017-06-11T10:42:54.818Z,29.83
2017-06-11T10:45:27.285Z,29.54
2017-06-11T10:47:59.752Z,30.90
2017-06-11T10:50:32.140Z,31.20
2017-06-11T10:53:04.536Z,31.51
2017-06-11T10:55:37.096Z,32.13
2017-06-11T10:58:09.410Z,31.59
2017-06-11T11:00:41.820Z,32.37
2017-06-11T11:03:14.275Z,30.87
2017-06-11T11:05:46.891Z,31.42
2017-06-11T11:08:19.452Z,30.08
2017-06-11T11:10:51.843Z,30.24
2017-06-11T11:13:24.215Z,30.54
2017-06-11T11:15:56.675Z,30.56
2017-06-11T11:18:29.062Z,31.34
2017-06-11T11:21:01.523Z,32.07
2017-06-11T11:23:33.785Z,32.67
2017-06-11T11:26:06.322Z,32.58
2017-06-11T11:28:38.755Z,32.14
2017-06-11T11:31:11.235Z,32.02
2017-06-11T11:33:43.590Z,32.14
2017-06-11T11:36:16.092Z,31.94
2017-06-11T11:38:48.529Z,31.97
2017-06-11T11:41:20.967Z,31.78
2017-06-11T11:43:53.279Z,31.55
2017-06-11T11:46:25.675Z,31.29
2017-06-11T11:48:57.994Z,30.09
2017-06-11T11:51:30.510Z,29.02
2017-06-11T11:54:02.752Z,30.40
2017-06-11T11:56:35.227Z,30.17
2017-06-11T11:59:07.630Z,29.26
2017-06-11T12:01:40.143Z,29.22
2017-06-11T12:04:12.505Z,28.99
2017-06-11T12:06:45.208Z,28.97
2017-06-11T12:09:17.351Z,29.87
2017-06-11T12:11:49.810Z,29.21
2017-06-11T12:14:22.102Z,29.55
2017-06-11T12:16:55.520Z,30.38
2017-06-11T12:19:27.888Z,30.46
2017-06-11T12:22:00.325Z,31.73
2017-06-11T12:24:32.698Z,31.04
2017-06-11T12:27:05.159Z,30.99
2017-06-11T12:29:37.579Z,30.87
2017-06-11T12:32:10.155Z,29.91
2017-06-11T12:34:42.486Z,30.39
2017-06-11T12:37:15.175Z,29.92
2017-06-11T12:39:47.218Z,31.15
2017-06-11T12:42:19.716Z,31.12
2017-06-11T12:44:52.220Z,31.50
2017-06-11T12:47:25.640Z,30.64
2017-06-11T12:49:57.934Z,30.46
2017-06-11T12:52:30.470Z,29.76
2017-06-11T12:55:02.911Z,30.45
2017-06-11T12:57:35.367Z,30.79
2017-06-11T13:00:07.848Z,30.63
2017-06-11T13:02:40.347Z,32.51
2017-06-11T13:05:12.679Z,31.83
2017-06-11T13:07:45.011Z,33.02
2017-06-11T13:10:17.324Z,32.79
2017-06-11T13:12:50.728Z,33.13
2017-06-11T13:15:23.119Z,33.40
2017-06-11T13:17:55.540Z,33.08
2017-06-11T13:20:28.031Z,33.15
2017-06-11T13:23:00.434Z,33.04
2017-06-11T13:25:32.803Z,33.98
2017-06-11T13:28:05.192Z,33.48
2017-06-11T13:30:37.474Z,33.50
2017-06-11T13:33:09.776Z,33.55
2017-06-11T13:35:42.111Z,33.29
2017-06-11T13:38:14.503Z,32.12
2017-06-11T13:40:46.954Z,31.97
2017-06-11T13:43:20.151Z,31.63
2017-06-11T13:45:52.919Z,31.47
2017-06-11T13:48:25.426Z,32.72
2017-06-11T13:50:57.903Z,33.78
2017-06-11T13:53:30.383Z,34.21
2017-06-11T13:56:02.843Z,34.67
2017-06-11T13:58:35.291Z,34.77
2017-06-11T14:01:07.691Z,34.25
2017-06-11T14:03:40.179Z,35.63
2017-06-11T14:06:12.586Z,36.55
2017-06-11T14:08:45.018Z,36.22
2017-06-11T14:11:17.383Z,36.22
2017-06-11T14:13:49.758Z,36.06
2017-06-11T14:16:22.095Z,36.53
2017-06-11T14:18:54.555Z,37.53
2017-06-11T14:21:32.843Z,37.04
2017-06-11T14:24:05.220Z,38.59
2017-06-11T14:26:37.720Z,39.52
2017-06-11T14:29:09.619Z,40.07
2017-06-11T14:31:41.414Z,41.10
2017-06-11T14:34:13.804Z,44.58
2017-06-11T14:36:46.150Z,45.72
2017-06-11T14:39:18.555Z,46.96
2017-06-11T14:41:50.958Z,46.14
2017-06-11T14:44:23.276Z,49.12
2017-06-11T14:46:55.622Z,48.54
2017-06-11T14:49:28.127Z,48.50
2017-06-11T14:52:00.570Z,50.10
2017-06-11T14:54:33.051Z,50.11
2017-06-11T14:57:05.535Z,52.45
2017-06-11T14:59:38.025Z,52.53
2017-06-11T15:02:10.398Z,53.09
2017-06-11T15:04:42.858Z,54.43
2017-06-11T15:07:15.248Z,59.16
2017-06-11T15:09:47.641Z,58.95
2017-06-11T15:12:20.067Z,58.21
2017-06-11T15:14:52.606Z,58.86
2017-06-11T15:17:25.044Z,54.17
2017-06-11T15:19:57.470Z,55.95
2017-06-11T15:22:29.807Z,58.30
2017-06-11T15:25:02.252Z,55.12
2017-06-11T15:27:34.798Z,56.03
2017-06-11T15:30:07.187Z,55.55
2017-06-11T15:32:39.519Z,53.43
2017-06-11T15:35:12.296Z,54.64
2017-06-11T15:37:44.403Z,54.22
2017-06-11T15:40:16.824Z,54.06
2017-06-11T15:42:49.279Z,54.45
2017-06-11T15:45:21.671Z,53.86
2017-06-11T15:47:54.140Z,55.33
2017-06-11T15:50:26.647Z,58.01
2017-06-11T15:52:58.964Z,61.56
2017-06-11T15:55:32.039Z,61.77
2017-06-11T15:58:04.607Z,60.48
2017-06-11T16:00:37.063Z,60.91
2017-06-11T16:03:09.403Z,62.72
2017-06-11T16:05:42.059Z,62.48
2017-06-11T16:08:14.059Z,61.64
2017-06-11T16:10:46.540Z,61.56
2017-06-11T16:13:18.888Z,61.46
2017-06-11T16:15:51.473Z,61.98
2017-06-11T16:18:23.644Z,63.95
2017-06-11T16:20:56.048Z,63.25
2017-06-11T16:23:28.468Z,63.05
2017-06-11T16:26:00.795Z,62.76
2017-06-11T16:28:33.707Z,62.56
2017-06-11T16:31:06.384Z,62.90
2017-06-11T16:33:39.078Z,63.30
2017-06-11T16:36:11.436Z,62.58
2017-06-11T16:38:43.880Z,62.81
2017-06-11T16:41:16.323Z,63.19
2017-06-11T16:43:48.711Z,63.16
2017-06-11T16:46:20.948Z,62.94
2017-06-11T16:48:53.383Z,62.67
2017-06-11T16:51:25.867Z,64.45
2017-06-11T16:53:58.325Z,64.53
2017-06-11T16:56:31.167Z,65.83
2017-06-11T16:59:03.122Z,65.16
2017-06-11T17:01:35.596Z,65.64
2017-06-11T17:04:08.038Z,65.92
2017-06-11T17:06:40.404Z,65.05
2017-06-11T17:09:12.692Z,66.29
2017-06-11T17:11:45.102Z,66.93
2017-06-11T17:14:17.676Z,65.57
2017-06-11T17:16:49.863Z,66.27
2017-06-11T17:19:22.196Z,67.96
2017-06-11T17:21:54.518Z,69.52
2017-06-11T17:24:27.000Z,70.06
2017-06-11T17:26:59.392Z,70.63
2017-06-11T17:29:31.707Z,71.74
2017-06-11T17:32:04.210Z,70.69
2017-06-11T17:34:36.651Z,71.54
2017-06-11T17:37:09.071Z,73.32
2017-06-11T17:39:41.451Z,73.10
2017-06-11T17:42:13.903Z,72.64
2017-06-11T17:44:47.021Z,73.88
2017-06-11T17:47:19.674Z,73.88
2017-06-11T17:49:52.098Z,75.15
2017-06-11T17:52:24.450Z,74.67
2017-06-11T17:54:56.686Z,75.83
2017-06-11T17:57:29.167Z,75.96
2017-06-11T18:00:01.726Z,76.80
2017-06-11T18:02:35.032Z,77.06
2017-06-11T18:05:07.538Z,77.38
2017-06-11T18:07:40.174Z,78.13
2017-06-11T18:10:13.508Z,79.23
2017-06-11T18:12:45.928Z,79.95
2017-06-11T18:15:18.587Z,80.22
2017-06-11T18:17:50.642Z,81.35
2017-06-11T18:20:22.988Z,81.69
2017-06-11T18:22:55.408Z,81.90
2017-06-11T18:25:27.811Z,82.13
2017-06-11T18:28:00.471Z,81.92
2017-06-11T18:30:32.951Z,82.45
2017-06-11T18:33:05.302Z,82.33
2017-06-11T18:35:37.568Z,81.89
2017-06-11T18:38:10.043Z,81.76
2017-06-11T18:40:42.391Z,81.07
2017-06-11T18:43:14.786Z,80.42
2017-06-11T18:45:47.299Z,80.43
2017-06-11T18:48:19.714Z,80.26
2017-06-11T18:50:52.067Z,80.09
2017-06-11T18:53:24.579Z,79.60
2017-06-11T18:55:57.019Z,80.47
2017-06-11T18:58:29.498Z,80.80
2017-06-11T19:01:01.799Z,80.67
2017-06-11T19:03:34.248Z,80.92
2017-06-11T19:06:06.603Z,80.92
2017-06-11T19:08:39.011Z,80.90
2017-06-11T19:11:11.369Z,81.40
2017-06-11T19:13:43.831Z,81.75
2017-06-11T19:16:16.175Z,81.99
2017-06-11T19:18:48.603Z,81.82
2017-06-11T19:21:21.004Z,81.48
2017-06-11T19:23:53.404Z,81.23
2017-06-11T19:26:25.690Z,81.39
2017-06-11T19:28:58.110Z,81.33
2017-06-11T19:31:30.471Z,81.13
2017-06-11T19:34:02.965Z,80.80
2017-06-11T19:36:35.295Z,81.18
2017-06-11T19:39:07.754Z,81.14
2017-06-11T19:41:40.259Z,80.97
2017-06-11T19:44:12.699Z,81.42
2017-06-11T19:46:45.119Z,81.47
2017-06-11T19:49:17.724Z,81.67
2017-06-11T19:51:50.156Z,81.82
2017-06-11T19:54:22.522Z,81.57
2017-06-11T19:56:55.616Z,81.85
2017-06-11T19:59:27.519Z,82.67
2017-06-11T20:01:59.968Z,83.23
2017-06-11T20:04:32.326Z,83.80
2017-06-11T20:07:04.799Z,84.65
2017-06-11T20:09:37.199Z,84.42
2017-06-11T20:12:09.560Z,85.03
2017-06-11T20:14:42.029Z,85.32
2017-06-11T20:17:14.475Z,85.09
2017-06-11T20:19:46.743Z,85.13
2017-06-11T20:22:19.179Z,84.58
2017-06-11T20:24:52.716Z,85.42
2017-06-11T20:27:25.148Z,85.57
2017-06-11T20:29:57.612Z,85.52
2017-06-11T20:32:29.980Z,85.68
2017-06-11T20:35:02.552Z,86.02
2017-06-11T20:37:35.104Z,85.72
2017-06-11T20:40:07.479Z,85.25
2017-06-11T20:42:39.877Z,85.22
2017-06-11T20:45:13.091Z,85.34
2017-06-11T20:47:45.463Z,84.74
2017-06-11T20:50:17.947Z,85.04
2017-06-11T20:52:50.416Z,85.23
2017-06-11T20:55:23.908Z,85.05
2017-06-11T20:57:56.436Z,84.58
2017-06-11T21:00:28.723Z,84.59
2017-06-11T21:06:00.932Z,84.47
2017-06-11T21:08:33.277Z,84.52
2017-06-11T21:11:05.770Z,84.43
2017-06-11T21:13:38.135Z,84.46
2017-06-11T21:16:10.599Z,84.33
2017-06-11T21:18:42.858Z,84.69
2017-06-11T21:21:15.163Z,84.64
2017-06-11T21:23:47.602Z,84.83
2017-06-11T21:26:19.879Z,85.00
2017-06-11T21:28:52.305Z,85.29
2017-06-11T21:31:24.783Z,84.75
2017-06-11T21:33:57.114Z,85.28
2017-06-11T21:36:29.411Z,85.23
2017-06-11T21:39:01.820Z,85.60
2017-06-11T21:41:34.215Z,85.19
2017-06-11T21:44:06.203Z,85.56
2017-06-11T21:46:38.670Z,85.68
2017-06-11T21:49:10.997Z,85.66
2017-06-11T21:51:43.519Z,85.41
2017-06-11T21:54:15.716Z,85.58
2017-06-11T21:56:48.009Z,85.65
2017-06-11T21:59:20.384Z,86.03
2017-06-11T22:01:53.188Z,85.89
2017-06-11T22:04:25.200Z,86.47
2017-06-11T22:06:57.568Z,86.42
2017-06-11T22:09:29.908Z,86.43
2017-06-11T22:12:02.252Z,86.66
2017-06-11T22:14:34.596Z,86.58
2017-06-11T22:17:06.891Z,86.80
2017-06-11T22:19:39.288Z,86.60
2017-06-11T22:22:11.513Z,86.46
2017-06-11T22:24:44.140Z,86.49
2017-06-11T22:27:16.139Z,86.72
2017-06-11T22:29:48.571Z,86.51
2017-06-11T22:32:21.120Z,86.52
2017-06-11T22:34:53.539Z,86.24
2017-06-11T22:37:26.831Z,85.91
2017-06-11T22:39:59.450Z,85.29
2017-06-11T22:42:31.801Z,84.86
2017-06-11T22:45:04.055Z,84.05
2017-06-11T22:47:36.384Z,83.92
2017-06-11T22:50:08.782Z,83.67
2017-06-11T22:52:42.192Z,83.22
2017-06-11T22:55:14.587Z,82.90
2017-06-11T22:57:47.030Z,83.16
2017-06-11T23:00:19.435Z,82.89
2017-06-11T23:02:51.714Z,82.61
2017-06-11T23:05:24.251Z,82.57
2017-06-11T23:07:56.543Z,82.55
2017-06-11T23:10:28.835Z,82.41
2017-06-11T23:13:01.310Z,82.51
2017-06-11T23:15:33.758Z,82.57
2017-06-11T23:18:06.107Z,82.74
2017-06-11T23:20:38.556Z,82.63
2017-06-11T23:23:10.819Z,82.92
2017-06-11T23:25:43.252Z,82.80
2017-06-11T23:28:15.659Z,82.27
2017-06-11T23:30:48.686Z,82.02
2017-06-11T23:33:21.259Z,81.78
2017-06-11T23:35:53.655Z,81.42
2017-06-11T23:38:25.849Z,81.28
2017-06-11T23:40:58.268Z,80.39
2017-06-11T23:43:31.636Z,80.68
2017-06-11T23:46:04.031Z,80.41
2017-06-11T23:48:36.447Z,79.69
2017-06-11T23:51:09.143Z,79.88
2017-06-11T23:53:41.508Z,79.87
2017-06-11T23:56:13.562Z,80.09
2017-06-11T23:58:45.955Z,80.49
